createdAt,value
2023-12-12T00:00:01.933Z,8.27
2023-12-12T00:02:45.594Z,9.68
2023-12-12T00:05:17.580Z,9.27
2023-12-12T00:07:49.596Z,6.90
2023-12-12T00:10:21.767Z,10.27
2023-12-12T00:12:53.994Z,9.45
2023-12-12T00:15:25.991Z,11.30
2023-12-12T00:17:57.942Z,9.20
2023-12-12T00:20:29.934Z,8.00
2023-12-12T00:23:02.009Z,7.95
2023-12-12T00:25:33.960Z,7.95
2023-12-12T00:28:06.129Z,7.43
2023-12-12T00:30:38.055Z,10.38
2023-12-12T00:33:10.101Z,12.13
2023-12-12T00:35:42.091Z,8.02
2023-12-12T00:38:14.058Z,8.73
2023-12-12T00:40:53.374Z,6.95
2023-12-12T00:43:25.887Z,9.93
2023-12-12T00:45:58.087Z,9.90
2023-12-12T00:48:30.034Z,7.75
2023-12-12T00:51:02.047Z,7.72
2023-12-12T00:53:34.091Z,9.15
2023-12-12T00:56:06.240Z,7.80
2023-12-12T00:58:38.240Z,8.35
2023-12-12T01:01:13.022Z,8.23
2023-12-12T01:03:45.175Z,9.25
2023-12-12T01:06:29.374Z,8.43
2023-12-12T01:09:01.748Z,9.25
2023-12-12T01:11:33.707Z,7.72
2023-12-12T01:14:05.641Z,7.93
2023-12-12T01:16:37.613Z,7.45
2023-12-12T01:19:09.794Z,11.18
2023-12-12T01:21:41.912Z,8.43
2023-12-12T01:24:13.846Z,7.45
2023-12-12T01:26:45.713Z,8.80
2023-12-12T01:29:18.406Z,9.57
2023-12-12T01:31:50.367Z,6.40
2023-12-12T01:34:22.406Z,6.95
2023-12-12T01:36:54.939Z,10.07
2023-12-12T01:39:26.900Z,6.93
2023-12-12T01:41:58.866Z,5.93
2023-12-12T01:44:30.828Z,8.00
2023-12-12T01:47:03.202Z,6.95
2023-12-12T01:49:35.305Z,9.75
2023-12-12T01:52:08.566Z,9.35
2023-12-12T01:54:45.952Z,10.85
2023-12-12T01:57:19.363Z,10.82
2023-12-12T01:59:51.736Z,15.43
2023-12-12T02:02:23.648Z,14.95
2023-12-12T02:04:55.698Z,18.05
2023-12-12T02:07:30.214Z,16.50
2023-12-12T02:10:02.757Z,19.50
2023-12-12T02:12:34.753Z,19.45
2023-12-12T02:15:07.212Z,19.13
2023-12-12T02:17:39.642Z,16.40
2023-12-12T02:20:11.893Z,15.32
2023-12-12T02:22:45.362Z,14.38
2023-12-12T02:25:19.179Z,15.35
2023-12-12T02:27:51.957Z,13.50
2023-12-12T02:30:24.335Z,15.98
2023-12-12T02:32:56.562Z,14.55
2023-12-12T02:35:30.522Z,11.10
2023-12-12T02:38:02.451Z,10.70
2023-12-12T02:40:34.533Z,8.57
2023-12-12T02:43:06.572Z,8.88
2023-12-12T02:45:38.495Z,8.38
2023-12-12T02:48:10.539Z,7.18
2023-12-12T02:50:42.613Z,7.47
2023-12-12T02:53:14.523Z,11.70
2023-12-12T02:55:46.482Z,7.95
2023-12-12T02:58:18.428Z,7.97
2023-12-12T03:00:50.735Z,9.25
2023-12-12T03:03:22.750Z,11.02
2023-12-12T03:05:54.894Z,7.63
2023-12-12T03:08:26.882Z,6.60
2023-12-12T03:10:58.822Z,6.82
2023-12-12T03:13:30.889Z,8.75
2023-12-12T03:16:03.024Z,5.47
2023-12-12T03:18:35.005Z,7.75
2023-12-12T03:21:07.219Z,6.93
2023-12-12T03:23:39.165Z,7.65
2023-12-12T03:26:12.469Z,7.38
2023-12-12T03:28:44.383Z,9.50
2023-12-12T03:31:16.438Z,8.20
2023-12-12T03:33:48.506Z,8.60
2023-12-12T03:36:20.517Z,9.75
2023-12-12T03:38:52.438Z,10.25
2023-12-12T03:41:25.259Z,9.35
2023-12-12T03:43:57.314Z,8.10
2023-12-12T03:46:29.336Z,6.18
2023-12-12T03:49:01.445Z,6.55
2023-12-12T03:51:33.565Z,10.55
2023-12-12T03:54:05.545Z,5.63
2023-12-12T03:56:37.422Z,7.03
2023-12-12T03:59:09.413Z,6.72
2023-12-12T04:01:41.465Z,5.57
2023-12-12T04:04:13.525Z,6.93
2023-12-12T04:06:48.918Z,6.57
2023-12-12T04:09:20.829Z,5.88
2023-12-12T04:11:52.782Z,6.20
2023-12-12T04:14:24.695Z,7.78
2023-12-12T04:16:56.724Z,10.32
2023-12-12T04:19:28.741Z,8.43
2023-12-12T04:22:01.429Z,9.48
2023-12-12T04:24:33.521Z,6.28
2023-12-12T04:27:05.587Z,9.80
2023-12-12T04:29:38.060Z,12.00
2023-12-12T04:32:10.051Z,8.07
2023-12-12T04:34:42.796Z,7.97
2023-12-12T04:37:14.736Z,7.18
2023-12-12T04:39:46.645Z,7.90
2023-12-12T04:42:18.637Z,9.80
2023-12-12T04:44:51.993Z,7.28
2023-12-12T04:47:24.833Z,10.10
2023-12-12T04:49:57.201Z,6.97
2023-12-12T04:52:29.390Z,5.28
2023-12-12T04:55:01.376Z,6.95
2023-12-12T04:57:33.734Z,7.68
2023-12-12T05:00:14.127Z,6.57
2023-12-12T05:02:47.035Z,6.18
2023-12-12T05:05:19.594Z,8.75
2023-12-12T05:07:52.580Z,6.25
2023-12-12T05:10:24.719Z,6.43
2023-12-12T05:12:56.789Z,9.13
2023-12-12T05:15:29.883Z,11.75
2023-12-12T05:18:02.074Z,10.32
2023-12-12T05:20:34.379Z,7.75
2023-12-12T05:23:06.384Z,7.45
2023-12-12T05:25:38.448Z,6.25
2023-12-12T05:28:10.476Z,5.10
2023-12-12T05:30:42.842Z,7.80
2023-12-12T05:33:14.868Z,6.07
2023-12-12T05:35:47.200Z,6.72
2023-12-12T05:38:19.158Z,7.13
2023-12-12T05:40:51.216Z,8.73
2023-12-12T05:43:23.585Z,8.57
2023-12-12T05:45:55.739Z,6.72
2023-12-12T05:48:28.210Z,6.97
2023-12-12T05:51:00.268Z,7.03
2023-12-12T05:53:32.254Z,7.72
2023-12-12T05:56:04.551Z,8.80
2023-12-12T05:58:36.634Z,8.18
2023-12-12T06:01:08.740Z,8.02
2023-12-12T06:03:44.409Z,7.25
2023-12-12T06:06:17.550Z,7.90
2023-12-12T06:08:49.593Z,8.68
2023-12-12T06:11:22.738Z,15.95
2023-12-12T06:13:54.669Z,15.15
2023-12-12T06:16:26.604Z,17.60
2023-12-12T06:18:58.909Z,21.77
2023-12-12T06:21:31.507Z,21.33
2023-12-12T06:24:04.683Z,19.35
2023-12-12T06:26:38.594Z,22.33
2023-12-12T06:29:10.617Z,24.30
2023-12-12T06:31:42.849Z,24.70
2023-12-12T06:34:15.027Z,26.55
2023-12-12T06:36:47.617Z,27.02
2023-12-12T06:39:19.738Z,26.55
2023-12-12T06:41:51.988Z,28.45
2023-12-12T06:44:24.000Z,29.10
2023-12-12T06:46:55.898Z,27.35
2023-12-12T06:49:27.975Z,27.13
2023-12-12T06:52:02.279Z,25.13
2023-12-12T06:54:34.284Z,31.85
2023-12-12T06:57:06.560Z,26.73
2023-12-12T06:59:38.560Z,26.23
2023-12-12T07:02:10.587Z,37.38
2023-12-12T07:04:42.943Z,32.83
2023-12-12T07:07:15.682Z,35.72
2023-12-12T07:09:58.826Z,33.10
2023-12-12T07:15:24.454Z,27.88
2023-12-12T07:17:56.638Z,34.58
2023-12-12T07:20:28.624Z,25.88
2023-12-12T07:23:00.628Z,37.90
2023-12-12T07:25:32.745Z,29.00
2023-12-12T07:28:04.926Z,31.63
2023-12-12T07:30:38.480Z,30.02
2023-12-12T07:33:10.630Z,33.47
2023-12-12T07:35:42.778Z,30.20
2023-12-12T07:38:17.658Z,30.10
2023-12-12T07:40:49.883Z,27.30
2023-12-12T07:43:21.832Z,26.05
2023-12-12T07:45:53.845Z,24.05
2023-12-12T07:48:26.361Z,24.60
2023-12-12T07:50:58.573Z,20.50
2023-12-12T07:53:30.552Z,21.05
2023-12-12T07:56:03.094Z,19.92
2023-12-12T07:58:35.054Z,17.58
2023-12-12T08:01:07.733Z,18.33
2023-12-12T08:03:40.077Z,18.88
2023-12-12T08:06:12.070Z,16.63
2023-12-12T08:08:43.962Z,18.58
2023-12-12T08:11:16.493Z,17.58
2023-12-12T08:13:48.475Z,20.10
2023-12-12T08:16:20.545Z,16.15
2023-12-12T08:18:52.682Z,20.27
2023-12-12T08:21:24.697Z,15.50
2023-12-12T08:23:56.818Z,12.88
2023-12-12T08:26:29.666Z,14.90
2023-12-12T08:29:01.595Z,17.88
2023-12-12T08:31:33.562Z,28.50
2023-12-12T08:34:05.783Z,15.40
2023-12-12T08:36:38.091Z,18.40
2023-12-12T08:39:10.076Z,15.73
2023-12-12T08:41:43.158Z,17.23
2023-12-12T08:44:15.075Z,20.45
2023-12-12T08:46:47.101Z,12.07
2023-12-12T08:49:20.155Z,13.95
2023-12-12T08:51:52.260Z,15.75
2023-12-12T08:54:25.549Z,14.68
2023-12-12T08:56:57.469Z,13.73
2023-12-12T08:59:30.164Z,12.57
2023-12-12T09:02:02.794Z,12.48
2023-12-12T09:04:34.922Z,20.60
2023-12-12T09:07:07.958Z,17.33
2023-12-12T09:09:42.751Z,14.50
2023-12-12T09:12:14.756Z,17.38
2023-12-12T09:14:46.681Z,13.85
2023-12-12T09:17:18.580Z,24.13
2023-12-12T09:19:50.843Z,17.15
2023-12-12T09:22:22.936Z,13.32
2023-12-12T09:24:55.709Z,14.20
2023-12-12T09:27:27.775Z,16.85
2023-12-12T09:29:59.875Z,14.15
2023-12-12T09:32:33.062Z,17.70
2023-12-12T09:35:05.526Z,18.15
2023-12-12T09:37:37.563Z,20.25
2023-12-12T09:40:11.033Z,16.95
2023-12-12T09:42:43.722Z,13.40
2023-12-12T09:45:17.282Z,19.95
2023-12-12T09:47:49.742Z,16.02
2023-12-12T09:50:21.802Z,21.27
2023-12-12T09:52:54.503Z,19.30
2023-12-12T09:55:27.441Z,16.95
2023-12-12T09:57:59.404Z,19.42
2023-12-12T10:00:31.373Z,19.65
2023-12-12T10:03:06.678Z,17.85
2023-12-12T10:05:40.454Z,16.92
2023-12-12T10:08:14.839Z,26.58
2023-12-12T10:10:47.470Z,26.00
2023-12-12T10:13:20.545Z,22.98
2023-12-12T10:15:52.649Z,25.15
2023-12-12T10:18:24.737Z,18.20
2023-12-12T10:20:57.490Z,19.25
2023-12-12T10:23:31.450Z,18.15
2023-12-12T10:26:04.508Z,17.75
2023-12-12T10:28:36.576Z,15.82
2023-12-12T10:31:09.124Z,23.65
2023-12-12T10:33:41.162Z,26.45
2023-12-12T10:36:13.218Z,30.38
2023-12-12T10:38:46.018Z,26.33
2023-12-12T10:41:25.709Z,31.02
2023-12-12T10:44:02.640Z,30.02
2023-12-12T10:46:37.800Z,36.10
2023-12-12T10:49:12.545Z,36.90
2023-12-12T10:51:46.039Z,31.42
2023-12-12T10:54:20.385Z,23.63
2023-12-12T10:56:54.295Z,21.25
2023-12-12T10:59:57.436Z,21.30
2023-12-12T11:02:19.658Z,13.55
2023-12-12T11:04:52.296Z,25.48
2023-12-12T11:07:24.884Z,21.58
2023-12-12T11:09:57.117Z,21.60
2023-12-12T11:12:30.041Z,18.27
2023-12-12T11:15:05.988Z,18.80
2023-12-12T11:17:38.319Z,17.67
2023-12-12T11:20:15.551Z,18.02
2023-12-12T11:22:56.988Z,18.85
2023-12-12T11:25:32.313Z,16.33
2023-12-12T11:28:05.378Z,19.63
2023-12-12T11:30:39.493Z,19.38
2023-12-12T11:33:12.555Z,16.30
2023-12-12T11:35:47.234Z,19.45
2023-12-12T11:38:34.349Z,16.67
2023-12-12T11:41:14.292Z,19.88
2023-12-12T11:43:47.594Z,19.35
2023-12-12T11:46:23.341Z,20.80
2023-12-12T11:48:55.602Z,19.95
2023-12-12T11:51:36.464Z,20.38
2023-12-12T11:54:18.220Z,22.92
2023-12-12T11:56:59.021Z,20.95
2023-12-12T11:59:32.569Z,26.20
2023-12-12T12:02:04.769Z,27.45
2023-12-12T12:04:37.134Z,25.45
2023-12-12T12:07:09.093Z,25.73
2023-12-12T12:09:42.834Z,22.38
2023-12-12T12:12:16.232Z,23.10
2023-12-12T12:14:48.267Z,20.63
2023-12-12T12:17:20.186Z,19.60
2023-12-12T12:19:58.657Z,18.38
2023-12-12T12:22:31.364Z,22.40
2023-12-12T12:25:03.926Z,22.13
2023-12-12T12:27:52.049Z,24.13
2023-12-12T12:30:26.587Z,19.08
2023-12-12T12:33:04.859Z,20.20
2023-12-12T12:35:37.095Z,20.10
2023-12-12T12:38:25.475Z,17.52
2023-12-12T12:40:57.451Z,18.90
2023-12-12T12:43:29.476Z,19.35
2023-12-12T12:46:08.131Z,22.60
2023-12-12T12:48:40.324Z,17.45
2023-12-12T12:51:12.778Z,17.38
2023-12-12T12:53:44.794Z,18.98
2023-12-12T12:56:19.322Z,17.20
2023-12-12T12:58:51.445Z,14.05
2023-12-12T13:01:24.027Z,17.70
2023-12-12T13:03:56.608Z,13.80
2023-12-12T13:06:29.346Z,16.45
2023-12-12T13:09:01.282Z,13.55
2023-12-12T13:11:33.966Z,14.93
2023-12-12T13:14:09.531Z,13.05
2023-12-12T13:16:45.516Z,17.40
2023-12-12T13:19:17.844Z,22.02
2023-12-12T13:21:53.585Z,19.33
2023-12-12T13:24:25.826Z,19.65
2023-12-12T13:26:57.853Z,20.92
2023-12-12T13:29:29.788Z,19.23
2023-12-12T13:32:02.563Z,22.65
2023-12-12T13:34:34.904Z,19.02
2023-12-12T13:37:06.926Z,20.10
2023-12-12T13:39:39.292Z,25.27
2023-12-12T13:42:12.077Z,28.35
2023-12-12T13:44:48.052Z,29.40
2023-12-12T13:47:20.051Z,24.38
2023-12-12T13:49:52.154Z,20.35
2023-12-12T13:52:25.622Z,18.58
2023-12-12T13:54:58.674Z,20.77
2023-12-12T13:57:31.867Z,21.15
2023-12-12T14:00:06.576Z,19.48
2023-12-12T14:02:41.464Z,21.60
2023-12-12T14:05:13.737Z,16.95
2023-12-12T14:07:46.076Z,21.35
2023-12-12T14:10:18.410Z,23.23
2023-12-12T14:12:50.366Z,20.27
2023-12-12T14:15:22.324Z,17.00
2023-12-12T14:17:54.441Z,22.38
2023-12-12T14:20:27.582Z,19.83
2023-12-12T14:23:07.409Z,23.02
2023-12-12T14:25:43.012Z,22.25
2023-12-12T14:28:15.080Z,21.42
2023-12-12T14:30:47.410Z,19.90
2023-12-12T14:33:20.706Z,19.58
2023-12-12T14:35:52.656Z,28.30
2023-12-12T14:38:24.560Z,21.05
2023-12-12T14:40:57.425Z,26.85
2023-12-12T14:43:29.785Z,24.88
2023-12-12T14:46:02.014Z,28.50
2023-12-12T14:48:34.187Z,22.45
2023-12-12T14:51:06.588Z,25.20
2023-12-12T14:53:39.979Z,24.77
2023-12-12T14:56:11.970Z,27.42
2023-12-12T14:58:44.326Z,29.55
2023-12-12T15:01:16.508Z,22.48
2023-12-12T15:03:48.666Z,22.20
2023-12-12T15:06:20.808Z,25.60
2023-12-12T15:08:52.798Z,28.80
2023-12-12T15:11:25.011Z,32.38
2023-12-12T15:13:56.939Z,29.48
2023-12-12T15:16:28.984Z,31.80
2023-12-12T15:19:01.164Z,28.00
2023-12-12T15:21:33.205Z,24.95
2023-12-12T15:24:05.561Z,28.98
2023-12-12T15:26:37.586Z,25.75
2023-12-12T15:29:09.629Z,26.25
2023-12-12T15:31:41.775Z,25.63
2023-12-12T15:34:13.932Z,26.10
2023-12-12T15:36:45.905Z,24.70
2023-12-12T15:39:18.187Z,29.77
2023-12-12T15:41:50.211Z,25.85
2023-12-12T15:44:22.116Z,24.42
2023-12-12T15:46:54.044Z,24.75
2023-12-12T15:49:26.071Z,28.63
2023-12-12T15:51:58.011Z,25.65
2023-12-12T15:54:29.971Z,28.30
2023-12-12T15:57:01.995Z,24.63
2023-12-12T15:59:37.084Z,28.80
2023-12-12T16:02:09.374Z,30.85
2023-12-12T16:04:43.538Z,29.88
2023-12-12T16:07:15.595Z,29.80
2023-12-12T16:09:48.528Z,29.13
2023-12-12T16:12:20.524Z,25.77
2023-12-12T16:14:52.509Z,27.92
2023-12-12T16:17:24.436Z,30.00
2023-12-12T16:19:57.035Z,28.58
2023-12-12T16:22:29.173Z,28.30
2023-12-12T16:25:01.252Z,27.92
2023-12-12T16:27:34.057Z,30.70
2023-12-12T16:30:07.524Z,36.22
2023-12-12T16:32:39.609Z,33.28
2023-12-12T16:35:12.140Z,36.53
2023-12-12T16:37:46.697Z,29.92
2023-12-12T16:40:18.827Z,27.98
2023-12-12T16:42:50.938Z,31.85
2023-12-12T16:45:22.861Z,29.65
2023-12-12T16:47:54.972Z,32.53
2023-12-12T16:50:27.084Z,81.17
2023-12-12T16:52:59.515Z,60.33
2023-12-12T16:55:31.638Z,58.00
2023-12-12T16:58:04.582Z,50.92
2023-12-12T17:00:36.679Z,44.08
2023-12-12T17:03:08.669Z,50.67
2023-12-12T17:05:40.751Z,45.75
2023-12-12T17:08:12.738Z,49.20
2023-12-12T17:10:44.746Z,36.55
2023-12-12T17:13:16.684Z,37.35
2023-12-12T17:15:51.625Z,37.13
2023-12-12T17:18:24.382Z,34.78
2023-12-12T17:20:56.797Z,39.95
2023-12-12T17:23:28.828Z,37.03
2023-12-12T17:26:00.998Z,37.33
2023-12-12T17:28:33.137Z,46.25
2023-12-12T17:31:05.805Z,49.80
2023-12-12T17:33:37.878Z,43.45
2023-12-12T17:36:10.118Z,43.20
2023-12-12T17:38:44.328Z,39.58
2023-12-12T17:41:19.499Z,38.00
2023-12-12T17:43:51.584Z,39.50
2023-12-12T17:46:23.513Z,51.55
2023-12-12T17:48:59.131Z,39.38
2023-12-12T17:51:31.592Z,41.25
2023-12-12T17:54:03.652Z,46.45
2023-12-12T17:56:36.323Z,50.72
2023-12-12T17:59:09.029Z,40.58
2023-12-12T18:01:41.159Z,37.28
2023-12-12T18:04:13.392Z,34.50
2023-12-12T18:06:45.802Z,37.55
2023-12-12T18:09:17.906Z,37.38
2023-12-12T18:11:49.926Z,40.10
2023-12-12T18:14:21.988Z,36.88
2023-12-12T18:16:53.944Z,37.65
2023-12-12T18:19:25.979Z,40.47
2023-12-12T18:21:58.040Z,37.40
2023-12-12T18:24:29.909Z,38.22
2023-12-12T18:27:01.927Z,33.53
2023-12-12T18:29:33.892Z,32.88
2023-12-12T18:32:07.212Z,35.45
2023-12-12T18:34:40.216Z,40.65
2023-12-12T18:37:12.240Z,44.05
2023-12-12T18:39:46.141Z,40.78
2023-12-12T18:42:18.151Z,49.20
2023-12-12T18:44:50.163Z,40.90
2023-12-12T18:47:22.529Z,42.90
2023-12-12T18:49:54.672Z,40.67
2023-12-12T18:52:26.770Z,40.25
2023-12-12T18:54:58.739Z,43.13
2023-12-12T18:57:31.169Z,49.35
2023-12-12T19:00:11.134Z,39.78
2023-12-12T19:02:44.346Z,34.83
2023-12-12T19:05:19.252Z,36.83
2023-12-12T19:07:52.569Z,32.90
2023-12-12T19:10:25.673Z,33.97
2023-12-12T19:12:57.776Z,28.55
2023-12-12T19:15:30.774Z,31.67
2023-12-12T19:18:03.293Z,33.58
2023-12-12T19:20:35.637Z,35.47
2023-12-12T19:23:08.668Z,32.20
2023-12-12T19:25:40.614Z,41.40
2023-12-12T19:28:12.984Z,36.72
2023-12-12T19:30:44.959Z,36.53
2023-12-12T19:33:17.134Z,34.05
2023-12-12T19:35:49.697Z,32.58
2023-12-12T19:38:22.348Z,34.35
2023-12-12T19:40:54.909Z,33.97
2023-12-12T19:43:27.013Z,33.78
2023-12-12T19:45:58.964Z,33.17
2023-12-12T19:48:30.982Z,33.15
2023-12-12T19:51:06.185Z,32.42
2023-12-12T19:53:38.067Z,41.20
2023-12-12T19:56:10.582Z,33.38
2023-12-12T19:58:42.606Z,29.75
2023-12-12T20:01:15.028Z,28.60
2023-12-12T20:03:47.451Z,32.53
2023-12-12T20:06:19.800Z,35.10
2023-12-12T20:08:52.705Z,35.50
2023-12-12T20:11:24.793Z,34.80
2023-12-12T20:13:56.826Z,32.63
2023-12-12T20:16:29.421Z,34.72
2023-12-12T20:19:03.571Z,35.08
2023-12-12T20:21:36.115Z,34.58
2023-12-12T20:24:08.411Z,35.53
2023-12-12T20:26:44.005Z,31.00
2023-12-12T20:29:16.068Z,33.10
2023-12-12T20:31:48.106Z,35.83
2023-12-12T20:34:20.272Z,45.63
2023-12-12T20:36:52.672Z,42.40
2023-12-12T20:39:25.605Z,39.63
2023-12-12T20:42:02.461Z,40.35
2023-12-12T20:44:34.531Z,43.25
2023-12-12T20:47:06.538Z,38.08
2023-12-12T20:49:42.591Z,36.08
2023-12-12T20:52:16.021Z,35.00
2023-12-12T20:54:51.795Z,31.85
2023-12-12T20:57:24.969Z,34.45
2023-12-12T20:59:56.928Z,49.88
2023-12-12T21:02:28.836Z,49.75
2023-12-12T21:05:00.781Z,42.53
2023-12-12T21:07:33.320Z,36.88
2023-12-12T21:10:05.714Z,37.17
2023-12-12T21:12:37.707Z,39.03
2023-12-12T21:15:10.832Z,36.25
2023-12-12T21:17:43.020Z,34.75
2023-12-12T21:20:15.471Z,42.05
2023-12-12T21:22:47.883Z,37.58
2023-12-12T21:28:16.648Z,36.88
2023-12-12T21:30:49.107Z,36.67
2023-12-12T21:33:21.127Z,36.10
2023-12-12T21:35:54.077Z,41.28
2023-12-12T21:38:26.082Z,38.65
2023-12-12T21:40:58.053Z,38.00
2023-12-12T21:43:54.455Z,37.67
2023-12-12T21:46:27.818Z,39.20
2023-12-12T21:49:00.333Z,42.10
2023-12-12T21:51:32.395Z,38.83
2023-12-12T21:54:04.409Z,35.55
2023-12-12T21:56:36.404Z,37.60
2023-12-12T21:59:08.634Z,35.97
2023-12-12T22:01:40.889Z,36.40
2023-12-12T22:04:12.986Z,36.10
2023-12-12T22:06:44.979Z,35.67
2023-12-12T22:09:19.680Z,38.27
2023-12-12T22:11:52.041Z,40.88
2023-12-12T22:14:24.981Z,40.78
2023-12-12T22:16:57.162Z,37.85
2023-12-12T22:19:29.220Z,42.33
2023-12-12T22:22:01.332Z,36.95
2023-12-12T22:24:33.275Z,36.35
2023-12-12T22:27:05.567Z,37.90
2023-12-12T22:29:37.565Z,37.05
2023-12-12T22:32:09.551Z,37.55
2023-12-12T22:34:41.504Z,34.45
2023-12-12T22:37:13.600Z,34.92
2023-12-12T22:39:45.768Z,39.92
2023-12-12T22:42:17.742Z,35.72
2023-12-12T22:44:49.678Z,32.85
2023-12-12T22:47:22.146Z,38.15
2023-12-12T22:49:54.339Z,36.47
2023-12-12T22:52:26.326Z,36.20
2023-12-12T22:54:58.309Z,33.20
2023-12-12T22:57:30.393Z,37.25
2023-12-12T23:00:10.691Z,35.40
2023-12-12T23:02:42.579Z,35.33
2023-12-12T23:05:14.623Z,29.88
2023-12-12T23:07:47.793Z,33.03
2023-12-12T23:10:23.053Z,35.05
2023-12-12T23:12:55.045Z,32.03
2023-12-12T23:15:27.720Z,29.83
2023-12-12T23:17:59.743Z,29.27
2023-12-12T23:20:31.673Z,40.67
2023-12-12T23:23:03.788Z,39.15
2023-12-12T23:25:36.106Z,33.97
2023-12-12T23:28:09.354Z,31.60
2023-12-12T23:30:56.697Z,32.60
2023-12-12T23:33:33.312Z,32.83
2023-12-12T23:36:05.787Z,35.40
2023-12-12T23:38:37.750Z,35.72
2023-12-12T23:41:10.092Z,34.92
2023-12-12T23:43:42.140Z,34.70
2023-12-12T23:46:15.876Z,31.38
2023-12-12T23:48:48.080Z,32.40
2023-12-12T23:51:20.155Z,30.30
2023-12-12T23:53:57.128Z,27.75
2023-12-12T23:56:29.363Z,30.65
2023-12-12T23:59:01.288Z,34.60
